Time;durP1;ratioP1;P1;durP2;ratioP2;P2;SDS_P1;SDS_P2;PMS_P1;PMS_P2;Temp;Humidity;BMP_temperature;BMP_pressure;BME280_temperature;BME280_humidity;BME280_pressure;Samples;Min_cycle;Max_cycle;Signal;HPM_P1;HPM_P2
2022/02/02 00:02:30;;;;;;;14.60;5.07;;;7.60;99.90;;;;;;4990067;28;20563;-85
2022/02/02 00:05:11;;;;;;;26.40;6.50;;;8.30;99.90;;;;;;4997402;28;20196;-85
2022/02/02 00:07:49;;;;;;;30.02;7.05;;;8.40;99.90;;;;;;5117321;22;20498;-87
2022/02/02 00:10:39;;;;;;;22.33;8.77;;;8.30;99.90;;;;;;5000750;28;20238;-87
2022/02/02 00:13:05;;;;;;;25.45;6.03;;;8.00;99.90;;;;;;5009283;28;20200;-88
2022/02/02 00:15:47;;;;;;;24.13;6.32;;;8.00;99.90;;;;;;5001701;28;20222;-88
2022/02/02 00:20:55;;;;;;;34.63;7.35;;;8.20;99.90;;;;;;5010809;28;20846;-88
2022/02/02 00:23:25;;;;;;;26.95;5.50;;;8.10;99.90;;;;;;5005906;23;20290;-86
2022/02/02 00:26:02;;;;;;;19.83;5.40;;;7.80;99.90;;;;;;4992525;28;20589;-86
2022/02/02 00:28:33;;;;;;;25.30;6.32;;;10.60;99.90;;;;;;4984031;28;20192;-86
2022/02/02 00:31:05;;;;;;;28.70;5.85;;;7.80;99.90;;;;;;4988115;28;20216;-86
2022/02/02 00:33:38;;;;;;;21.55;6.43;;;11.20;99.90;;;;;;4981438;28;20308;-85
2022/02/02 00:36:12;;;;;;;29.50;7.20;;;7.80;99.90;;;;;;4985550;28;20197;-85
2022/02/02 00:38:38;;;;;;;26.77;7.85;;;8.10;99.90;;;;;;4981957;28;20192;-87
2022/02/02 00:41:06;;;;;;;26.48;6.47;;;8.30;99.90;;;;;;4991162;28;20256;-87
2022/02/02 00:43:32;;;;;;;34.90;6.40;;;8.20;99.90;;;;;;4981206;28;20224;-87
2022/02/02 00:45:58;;;;;;;20.40;5.10;;;8.20;99.90;;;;;;4984277;28;20247;-87
2022/02/02 00:48:27;;;;;;;33.13;5.73;;;9.80;99.90;;;;;;4993984;28;20949;-87
2022/02/02 00:51:00;;;;;;;27.73;6.75;;;10.50;99.90;;;;;;4980858;28;20490;-87
2022/02/02 00:53:35;;;;;;;20.77;5.57;;;7.70;99.90;;;;;;4987627;28;20299;-87
2022/02/02 00:56:01;;;;;;;21.27;5.15;;;7.80;99.90;;;;;;4983508;28;20684;-86
2022/02/02 00:58:36;;;;;;;24.90;5.67;;;8.00;99.90;;;;;;4981477;28;20266;-86
2022/02/02 01:01:02;;;;;;;29.13;6.40;;;7.60;99.90;;;;;;4987650;28;20443;-87
2022/02/02 01:03:29;;;;;;;39.07;6.10;;;7.90;99.90;;;;;;4989274;28;20201;-86
2022/02/02 01:05:54;;;;;;;20.67;5.55;;;7.20;99.90;;;;;;4983490;28;20749;-87
2022/02/02 01:11:44;;;;;;;23.08;5.47;;;7.50;99.90;;;;;;4960731;28;20580;-87
2022/02/02 01:15:06;;;;;;;21.58;6.70;;;7.30;99.90;;;;;;4986027;28;20193;-87
2022/02/02 01:19:55;;;;;;;25.35;5.65;;;9.20;99.90;;;;;;4985329;28;20440;-86
2022/02/02 01:27:44;;;;;;;31.42;6.88;;;6.60;99.90;;;;;;4977770;28;20212;-86
2022/02/02 01:27:51;;;;;;;28.77;6.20;;;7.90;99.90;;;;;;4995418;28;20219;-86
2022/02/02 01:30:18;;;;;;;22.73;5.90;;;11.30;99.90;;;;;;4982813;28;20337;-86
2022/02/02 01:32:44;;;;;;;16.55;5.80;;;8.00;99.90;;;;;;4986128;28;20440;-87
2022/02/02 01:35:15;;;;;;;19.97;5.60;;;8.60;99.90;;;;;;4962861;28;20324;-86
2022/02/02 01:38:06;;;;;;;28.80;6.85;;;8.40;99.90;;;;;;4972037;28;20208;-86
2022/02/02 01:40:37;;;;;;;25.65;7.05;;;7.70;99.90;;;;;;4972596;28;20181;-85
2022/02/02 01:43:08;;;;;;;29.73;7.60;;;7.70;99.90;;;;;;4979177;28;20184;-85
2022/02/02 01:45:49;;;;;;;24.20;5.90;;;9.20;99.90;;;;;;4968593;28;20596;-86
2022/02/02 01:56:00;;;;;;;27.55;7.40;;;7.60;99.90;;;;;;4994972;28;20594;-86
2022/02/02 02:01:09;;;;;;;26.15;5.32;;;6.60;99.90;;;;;;4978786;28;21030;-86
2022/02/02 02:03:37;;;;;;;25.52;5.18;;;10.20;99.90;;;;;;4967396;28;20687;-85
2022/02/02 02:06:03;;;;;;;10.68;4.68;;;7.80;99.90;;;;;;4992708;28;20755;-86
2022/02/02 02:08:29;;;;;;;25.13;4.93;;;8.40;99.90;;;;;;4981135;28;20326;-86
2022/02/02 02:10:55;;;;;;;26.23;5.27;;;9.50;99.90;;;;;;4981311;28;20725;-87
2022/02/02 02:16:21;;;;;;;29.48;7.68;;;8.00;99.90;;;;;;4981085;28;20563;-87
2022/02/02 02:18:47;;;;;;;30.23;7.95;;;7.80;99.90;;;;;;4970692;28;20259;-87
2022/02/02 02:21:16;;;;;;;26.80;5.20;;;7.80;99.90;;;;;;4989247;28;20408;-86
2022/02/02 02:23:44;;;;;;;32.37;6.50;;;6.30;99.90;;;;;;4980244;28;20454;-87
2022/02/02 02:26:11;;;;;;;26.80;6.27;;;11.10;99.90;;;;;;4994617;28;21004;-87
2022/02/02 02:28:50;;;;;;;32.45;8.50;;;7.70;99.90;;;;;;4983637;28;20452;-87
2022/02/02 02:31:28;;;;;;;25.15;6.38;;;10.40;99.90;;;;;;4986338;28;20538;-87
2022/02/02 03:31:25;;;;;;;32.80;6.28;;;9.80;99.90;;;;;;4988520;28;20235;-87
2022/02/02 04:06:19;;;;;;;31.65;6.35;;;10.70;99.90;;;;;;4991348;28;20837;-87
2022/02/02 04:08:44;;;;;;;22.13;5.22;;;8.00;99.90;;;;;;4977574;28;20215;-86
2022/02/02 04:11:18;;;;;;;32.23;6.37;;;8.70;99.90;;;;;;4976298;28;20177;-87
2022/02/02 04:17:12;;;;;;;30.40;5.95;;;10.10;99.90;;;;;;4987961;28;20195;-88
2022/02/02 04:37:26;;;;;;;27.30;6.38;;;9.90;99.90;;;;;;4986666;28;20264;-87
2022/02/02 04:55:11;;;;;;;21.40;5.82;;;10.10;99.90;;;;;;4986143;28;20255;-87
2022/02/02 05:03:38;;;;;;;26.60;6.45;;;8.60;99.90;;;;;;4989366;28;20205;-88
2022/02/02 05:06:14;;;;;;;25.15;6.60;;;10.70;99.90;;;;;;4972306;28;20230;-88
2022/02/02 05:08:56;;;;;;;21.67;5.78;;;11.50;99.90;;;;;;4978416;28;20317;-88
2022/02/02 05:11:49;;;;;;;31.48;8.52;;;8.30;99.90;;;;;;4973006;28;20216;-87
2022/02/02 05:17:17;;;;;;;21.80;5.72;;;5.80;99.90;;;;;;4989185;28;20208;-88
2022/02/02 05:29:06;;;;;;;28.63;6.82;;;8.50;99.90;;;;;;4987739;28;20192;-87
2022/02/02 05:52:46;;;;;;;14.45;3.63;;;7.70;99.90;;;;;;4995182;28;20342;-87
2022/02/02 05:57:51;;;;;;;14.43;3.00;;;7.50;99.90;;;;;;5390271;22;20241;-86
2022/02/02 06:00:32;;;;;;;12.35;3.83;;;7.30;99.90;;;;;;5012190;28;20232;-89
2022/02/02 06:03:02;;;;;;;11.30;2.95;;;6.40;99.90;;;;;;4972734;28;20182;-89
2022/02/02 06:05:40;;;;;;;12.88;2.72;;;9.80;99.90;;;;;;5008959;28;20205;-89
2022/02/02 06:08:11;;;;;;;8.27;2.40;;;9.80;99.90;;;;;;4986958;28;20181;-85
2022/02/02 06:10:45;;;;;;;3.00;1.95;;;7.80;99.90;;;;;;5056759;23;20229;-89
2022/02/02 06:13:44;;;;;;;8.57;2.40;;;9.50;99.90;;;;;;4990607;28;20350;-88
2022/02/02 06:16:38;;;;;;;4.10;2.30;;;7.20;99.90;;;;;;4992458;28;20169;-87
2022/02/02 06:19:04;;;;;;;9.82;2.45;;;9.70;99.90;;;;;;4968568;28;20585;-87
2022/02/02 06:24:19;;;;;;;6.93;2.08;;;7.50;99.90;;;;;;5022485;28;20212;-89
2022/02/02 06:26:58;;;;;;;11.23;2.55;;;8.50;99.90;;;;;;5026151;28;20200;-89
2022/02/02 06:29:25;;;;;;;5.10;2.80;;;7.90;99.90;;;;;;5004808;28;20177;-89
2022/02/02 06:31:52;;;;;;;5.47;1.38;;;8.30;99.90;;;;;;4984246;28;20180;-91
2022/02/02 06:34:26;;;;;;;20.98;2.80;;;5.60;99.90;;;;;;5001707;28;20164;-89
2022/02/02 06:37:11;;;;;;;4.80;2.60;;;7.90;99.90;;;;;;5016346;28;20188;-89
2022/02/02 06:39:39;;;;;;;20.92;2.70;;;6.90;99.90;;;;;;5001479;28;20172;-88
2022/02/02 06:42:10;;;;;;;3.47;2.38;;;8.50;99.90;;;;;;5011105;28;20199;-90
2022/02/02 06:44:49;;;;;;;16.20;5.40;;;7.50;99.90;;;;;;5014480;28;20176;-88
2022/02/02 06:47:25;;;;;;;9.50;3.33;;;7.90;99.90;;;;;;5009601;28;20224;-89
2022/02/02 06:49:51;;;;;;;8.13;3.20;;;7.10;99.90;;;;;;4992853;28;20287;-90
2022/02/02 06:52:26;;;;;;;14.32;3.53;;;6.90;99.90;;;;;;5005486;28;20775;-87
2022/02/02 06:55:21;;;;;;;11.77;4.45;;;8.70;99.90;;;;;;5005508;28;20180;-87
2022/02/02 06:58:20;;;;;;;13.23;3.80;;;8.20;99.90;;;;;;5007462;28;20199;-88
2022/02/02 07:04:38;;;;;;;12.85;3.67;;;8.20;99.90;;;;;;5026955;28;20176;-87
2022/02/02 07:08:17;;;;;;;10.60;3.72;;;5.00;99.90;;;;;;5004840;28;20212;-89
2022/02/02 07:11:53;;;;;;;10.75;3.67;;;7.80;99.90;;;;;;5015244;28;20256;-89
2022/02/02 07:15:27;;;;;;;14.75;4.93;;;10.60;99.90;;;;;;5018870;28;20282;-88
2022/02/02 07:32:36;;;;;;;19.45;7.32;;;8.00;99.90;;;;;;5022102;28;20202;-81
2022/02/02 07:35:21;;;;;;;31.42;7.38;;;8.30;99.90;;;;;;5012368;28;20191;-83
2022/02/02 07:38:08;;;;;;;19.65;5.60;;;7.30;99.90;;;;;;4680358;28;10000749;-83
2022/02/02 07:40:59;;;;;;;26.90;6.38;;;7.30;99.90;;;;;;5040026;23;20163;-86
2022/02/02 07:44:06;;;;;;;21.13;5.30;;;8.40;99.90;;;;;;4966268;28;20187;-86
2022/02/02 07:46:37;;;;;;;30.33;8.15;;;11.10;99.90;;;;;;4972717;28;20468;-84
2022/02/02 07:49:08;;;;;;;20.75;6.80;;;10.10;99.90;;;;;;4995546;23;20231;-81
2022/02/02 07:51:36;;;;;;;23.58;6.05;;;8.20;99.90;;;;;;5000682;28;20181;-83
2022/02/02 07:54:08;;;;;;;21.67;5.50;;;10.80;99.90;;;;;;5006609;28;20212;-85
2022/02/02 07:56:46;;;;;;;15.90;5.20;;;7.30;99.90;;;;;;5002882;28;20189;-86
2022/02/02 07:59:42;;;;;;;19.17;6.05;;;7.70;99.90;;;;;;5006920;28;20439;-86
2022/02/02 08:02:08;;;;;;;23.80;6.82;;;7.80;99.90;;;;;;4989511;28;20170;-87
2022/02/02 08:04:35;;;;;;;26.80;7.30;;;10.50;99.90;;;;;;5002632;28;20192;-87
2022/02/02 08:07:02;;;;;;;29.45;6.78;;;7.30;99.90;;;;;;5005791;28;20511;-86
2022/02/02 08:09:39;;;;;;;27.48;7.40;;;8.30;99.90;;;;;;5003137;28;20197;-86
2022/02/02 08:12:15;;;;;;;30.70;7.80;;;8.00;99.90;;;;;;4996013;28;20204;-87
2022/02/02 08:14:45;;;;;;;31.70;7.65;;;7.70;99.90;;;;;;4998971;28;20684;-85
2022/02/02 08:17:11;;;;;;;30.23;6.53;;;7.80;99.90;;;;;;4997460;28;20205;-82
2022/02/02 08:19:39;;;;;;;28.57;5.57;;;9.30;99.90;;;;;;4988721;28;20621;-86
2022/02/02 08:22:05;;;;;;;19.10;5.55;;;8.20;99.90;;;;;;4994974;28;20469;-84
2022/02/02 08:24:51;;;;;;;24.70;5.93;;;9.60;99.90;;;;;;4995012;28;20204;-86
2022/02/02 09:24:25;;;;;;;23.25;5.20;;;9.40;99.90;;;;;;4799487;22;20733;-92
2022/02/02 09:35:23;;;;;;;21.47;4.30;;;9.30;99.90;;;;;;5015798;28;20422;-91
2022/02/02 09:38:02;;;;;;;20.75;5.93;;;9.50;99.90;;;;;;4992352;28;20435;-91
2022/02/02 09:43:13;;;;;;;21.60;5.40;;;12.80;99.90;;;;;;5025655;28;20216;-89
2022/02/02 09:46:12;;;;;;;18.53;5.27;;;9.60;99.90;;;;;;4993101;28;20484;-91
2022/02/02 09:48:48;;;;;;;19.83;5.67;;;7.60;99.90;;;;;;5020552;28;20430;-93
2022/02/02 09:51:29;;;;;;;16.13;5.20;;;9.40;99.90;;;;;;5024024;28;20467;-87
2022/02/02 09:54:00;;;;;;;26.40;7.88;;;7.70;99.90;;;;;;5010890;28;20720;-88
2022/02/02 09:57:15;;;;;;;26.27;5.50;;;8.80;99.90;;;;;;5014087;28;20188;-90
2022/02/02 10:05:15;;;;;;;19.07;6.20;;;9.60;99.90;;;;;;5027047;28;20414;-91
2022/02/02 10:15:35;;;;;;;15.13;4.50;;;10.90;99.90;;;;;;5008845;28;20444;-91
2022/02/02 10:18:10;;;;;;;20.13;5.63;;;12.00;99.90;;;;;;5010135;23;20488;-80
2022/02/02 10:20:37;;;;;;;25.60;5.87;;;9.80;99.90;;;;;;4992528;28;20424;-78
2022/02/02 10:23:04;;;;;;;15.32;5.25;;;11.40;99.90;;;;;;4989958;28;20469;-82
2022/02/02 10:25:33;;;;;;;14.27;5.47;;;8.70;99.90;;;;;;4974990;28;20268;-81
2022/02/02 10:28:28;;;;;;;23.23;6.80;;;9.50;99.90;;;;;;4975886;28;20442;-90
2022/02/02 10:31:01;;;;;;;20.13;5.93;;;10.00;99.90;;;;;;4970181;28;20413;-86
2022/02/02 10:34:08;;;;;;;27.10;6.03;;;10.90;99.90;;;;;;4952119;28;20520;-88
2022/02/02 10:36:34;;;;;;;26.60;6.40;;;10.60;99.90;;;;;;4970458;28;20527;-90
2022/02/02 10:39:09;;;;;;;21.27;7.37;;;10.70;99.90;;;;;;4968502;28;20435;-86
2022/02/02 10:41:57;;;;;;;21.77;6.87;;;11.90;99.90;;;;;;4969095;28;20516;-92
2022/02/02 10:44:46;;;;;;;21.27;6.70;;;13.80;99.90;;;;;;4949660;28;20434;-89
2022/02/02 10:47:36;;;;;;;19.13;5.60;;;14.30;99.90;;;;;;4951793;28;20501;-83
2022/02/02 10:50:46;;;;;;;21.87;6.23;;;11.10;99.90;;;;;;4955152;28;20535;-89
2022/02/02 10:59:02;;;;;;;24.20;7.00;;;10.30;99.90;;;;;;4975346;28;20439;-89
2022/02/02 11:06:44;;;;;;;14.07;6.43;;;10.10;99.90;;;;;;4977906;28;20479;-91
2022/02/02 11:09:19;;;;;;;26.70;8.10;;;12.40;99.90;;;;;;4970967;28;20495;-91
2022/02/02 11:11:52;;;;;;;18.00;6.10;;;10.00;99.90;;;;;;4970595;28;20508;-84
2022/02/02 11:14:47;;;;;;;12.50;5.68;;;12.50;99.90;;;;;;4983023;28;20941;-87
2022/02/02 11:17:29;;;;;;;18.60;5.32;;;9.70;99.90;;;;;;4969240;28;20210;-91
2022/02/02 11:20:06;;;;;;;14.43;5.07;;;9.70;99.90;;;;;;4977699;28;20582;-84
2022/02/02 11:22:45;;;;;;;18.17;5.70;;;11.40;99.90;;;;;;4942573;29;20453;-89
2022/02/02 11:25:11;;;;;;;12.67;3.47;;;8.80;99.90;;;;;;4965752;28;20855;-91
2022/02/02 11:27:44;;;;;;;15.63;5.33;;;9.70;99.90;;;;;;4980182;28;20445;-92
2022/02/02 11:30:40;;;;;;;;;;;;;;;;;;;;;
2022/02/02 11:33:59;;;;;;;14.90;4.70;;;11.60;99.90;;;;;;4961824;29;20494;-90
2022/02/02 11:36:33;;;;;;;13.73;4.90;;;10.10;99.90;;;;;;4963219;28;20437;-84
2022/02/02 11:39:09;;;;;;;12.30;4.33;;;14.00;99.90;;;;;;4984212;28;20413;-91
2022/02/02 11:41:58;;;;;;;10.17;4.03;;;12.50;99.90;;;;;;4979808;28;20413;-92
2022/02/02 11:44:52;;;;;;;15.67;5.03;;;11.70;99.90;;;;;;4978541;28;20436;-82
2022/02/02 11:47:52;;;;;;;16.87;5.80;;;12.60;99.90;;;;;;4954762;28;20520;-92
2022/02/02 11:51:09;;;;;;;14.13;5.20;;;12.90;99.90;;;;;;4985540;28;20445;-84
2022/02/02 11:53:57;;;;;;;13.97;5.17;;;13.40;99.90;;;;;;4972312;28;20436;-83
2022/02/02 11:56:28;;;;;;;15.70;6.37;;;13.30;99.90;;;;;;4984001;28;20493;-84
2022/02/02 11:58:54;;;;;;;19.53;6.70;;;13.20;99.90;;;;;;4964057;28;20444;-86
2022/02/02 12:10:21;;;;;;;17.70;6.00;;;12.70;99.90;;;;;;5041127;23;20490;-89
2022/02/02 12:56:51;;;;;;;16.73;5.87;;;14.70;99.90;;;;;;4958638;22;20813;-92
2022/02/02 13:00:24;;;;;;;17.13;4.90;;;16.30;99.90;;;;;;5016420;28;20439;-90
2022/02/02 13:03:50;;;;;;;10.70;4.47;;;16.00;99.90;;;;;;5016187;28;20625;-92
2022/02/02 13:07:13;;;;;;;13.70;4.60;;;16.50;99.90;;;;;;5014261;28;20514;-91
2022/02/02 13:10:38;;;;;;;15.73;6.40;;;17.00;99.90;;;;;;5010568;28;21177;-90
2022/02/02 13:14:10;;;;;;;13.80;4.10;;;16.30;99.90;;;;;;5014410;28;20501;-89
2022/02/02 13:17:29;;;;;;;8.20;3.97;;;16.20;99.90;;;;;;5031805;28;20517;-90
2022/02/02 13:21:11;;;;;;;10.20;4.10;;;16.20;99.90;;;;;;5016276;28;20436;-89
2022/02/02 13:24:31;;;;;;;13.00;4.60;;;17.40;99.90;;;;;;5017263;28;20440;-92
2022/02/02 13:28:08;;;;;;;10.60;5.43;;;16.70;99.90;;;;;;5013118;28;20534;-89
2022/02/02 13:32:05;;;;;;;20.10;6.33;;;17.70;99.90;;;;;;5001294;28;20491;-90
2022/02/02 13:35:36;;;;;;;10.93;4.20;;;16.60;99.90;;;;;;5014322;28;20467;-92
2022/02/02 13:43:09;;;;;;;15.70;4.67;;;16.40;99.90;;;;;;5002506;28;21072;-92
2022/02/02 13:49:59;;;;;;;14.17;5.83;;;17.30;92.50;;;;;;5002316;28;20551;-91
2022/02/02 13:52:30;;;;;;;15.40;5.33;;;19.10;92.40;;;;;;4978080;28;20486;-90
2022/02/02 14:10:13;;;;;;;12.90;4.57;;;13.60;95.90;;;;;;4991463;28;20492;-90
2022/02/02 14:25:51;;;;;;;10.37;3.07;;;12.60;99.90;;;;;;5000207;28;20479;-91
2022/02/02 14:33:53;;;;;;;8.90;3.97;;;11.60;99.90;;;;;;4987982;28;20584;-92
2022/02/02 14:37:42;;;;;;;18.07;4.77;;;12.80;99.90;;;;;;4983392;28;20484;-88
2022/02/02 14:44:23;;;;;;;10.57;3.47;;;9.20;99.90;;;;;;4981631;28;20414;-90
2022/02/02 14:47:47;;;;;;;11.70;3.30;;;12.10;99.90;;;;;;4996501;28;20447;-88
2022/02/02 14:51:29;;;;;;;15.63;3.60;;;11.20;99.90;;;;;;5000675;28;20447;-89
2022/02/02 14:55:06;;;;;;;12.77;4.07;;;12.20;99.90;;;;;;4292825;28;10001359;-90
2022/02/02 15:29:11;;;;;;;18.57;3.70;;;11.10;99.90;;;;;;4985380;28;20863;-93
2022/02/02 15:32:30;;;;;;;10.57;3.77;;;11.60;99.90;;;;;;5009551;28;20412;-92
2022/02/02 15:36:13;;;;;;;12.88;3.22;;;10.70;99.90;;;;;;5004041;28;20421;-91
2022/02/02 15:39:31;;;;;;;8.17;3.20;;;11.20;99.90;;;;;;5011735;28;20212;-91
2022/02/02 15:56:13;;;;;;;13.97;6.23;;;10.10;99.90;;;;;;5002233;23;20479;-83
2022/02/02 15:58:21;;;;;;;16.10;4.05;;;10.60;99.90;;;;;;5020651;28;20236;-84
2022/02/02 16:03:37;;;;;;;8.38;3.60;;;13.20;99.90;;;;;;5015075;28;20412;-88
2022/02/02 16:06:27;;;;;;;10.32;3.50;;;11.70;99.90;;;;;;4997647;28;20184;-90
2022/02/02 16:09:36;;;;;;;13.93;4.30;;;11.20;99.90;;;;;;4986090;28;20192;-85
2022/02/02 16:12:32;;;;;;;13.03;5.83;;;11.50;99.90;;;;;;4995281;28;20438;-90
2022/02/02 16:15:32;;;;;;;17.30;5.60;;;9.60;99.90;;;;;;4986177;28;20436;-87
2022/02/02 16:18:42;;;;;;;16.83;5.00;;;6.90;99.90;;;;;;4994745;28;20212;-91
2022/02/02 16:36:36;;;;;;;9.80;4.00;;;8.80;99.90;;;;;;4977600;23;20520;-88
2022/02/02 16:39:27;;;;;;;10.40;4.75;;;8.70;99.90;;;;;;5131639;23;20228;-89
2022/02/02 16:44:40;;;;;;;11.43;3.90;;;8.40;99.90;;;;;;4998140;28;20195;-86
2022/02/02 16:47:09;;;;;;;19.95;5.95;;;;;;;;;;5005130;28;20182;-83
2022/02/02 16:49:57;;;;;;;15.45;5.28;;;8.30;99.90;;;;;;5011437;28;20196;-82
2022/02/02 16:53:27;;;;;;;30.65;13.85;;;8.10;99.90;;;;;;4997306;28;20279;-87
2022/02/02 16:56:16;;;;;;;12.23;5.07;;;8.10;99.90;;;;;;4994132;28;20200;-83
2022/02/02 17:32:17;;;;;;;16.47;5.10;;;7.50;99.90;;;;;;4597811;23;10000067;-87
2022/02/02 17:35:22;;;;;;;10.25;4.70;;;7.30;99.90;;;;;;4939219;29;20217;-91
2022/02/02 18:36:17;;;;;;;15.80;7.20;;;7.00;99.90;;;;;;5187732;23;22553;-91
2022/02/02 18:59:48;;;;;;;13.20;6.25;;;6.60;99.90;;;;;;2796781;27;20727;-90
2022/02/02 19:40:10;;;;;;;12.27;6.00;;;7.60;99.90;;;;;;4931102;29;20174;-91
2022/02/02 19:56:45;;;;;;;11.27;5.55;;;7.20;99.90;;;;;;4924966;29;20292;-92
2022/02/02 20:04:49;;;;;;;11.80;6.72;;;7.50;99.90;;;;;;4919962;29;20255;-91
2022/02/02 20:12:48;;;;;;;17.80;8.43;;;7.40;99.90;;;;;;4907507;29;20184;-90
2022/02/02 20:15:14;;;;;;;15.80;6.93;;;7.20;99.90;;;;;;4898740;29;20184;-92
2022/02/02 20:17:41;;;;;;;21.97;8.10;;;;;;;;;;4915831;29;20322;-91
2022/02/02 20:20:14;;;;;;;13.88;7.95;;;7.40;99.90;;;;;;4907637;29;20451;-91
2022/02/02 20:22:40;;;;;;;17.35;8.18;;;7.30;99.90;;;;;;4900104;29;20199;-90
2022/02/02 20:25:07;;;;;;;15.18;7.80;;;7.40;99.90;;;;;;4906719;29;20406;-90
2022/02/02 20:27:34;;;;;;;13.60;6.30;;;7.50;99.90;;;;;;4903572;29;20192;-92
2022/02/02 20:30:01;;;;;;;13.98;7.72;;;7.60;99.90;;;;;;4913776;29;20211;-90
2022/02/02 20:32:27;;;;;;;25.10;6.90;;;7.60;99.90;;;;;;4907422;29;20200;-92
2022/02/02 20:34:53;;;;;;;7.10;5.60;;;7.60;99.90;;;;;;4905418;29;20208;-91
2022/02/02 20:37:19;;;;;;;14.57;7.03;;;7.70;99.90;;;;;;4905958;29;20454;-92
2022/02/02 20:40:04;;;;;;;11.30;6.40;;;7.80;99.90;;;;;;4906207;29;20204;-91
2022/02/02 20:43:00;;;;;;;20.83;7.57;;;7.70;99.90;;;;;;4891080;29;20203;-91
2022/02/02 21:07:47;;;;;;;17.58;8.48;;;8.10;99.90;;;;;;4859799;29;20262;-92
2022/02/02 21:11:01;;;;;;;25.73;10.45;;;8.30;99.90;;;;;;4918531;29;20206;-90
2022/02/02 21:14:36;;;;;;;18.55;10.88;;;8.20;99.90;;;;;;4923411;29;20202;-93
2022/02/02 21:17:55;;;;;;;23.48;11.48;;;8.20;99.90;;;;;;4917728;29;20219;-93
2022/02/02 21:21:34;;;;;;;28.35;13.45;;;8.10;99.90;;;;;;4918311;29;20295;-91
2022/02/02 21:25:06;;;;;;;24.98;15.30;;;8.10;99.90;;;;;;4916689;29;20233;-91
2022/02/02 21:28:22;;;;;;;29.63;14.82;;;8.10;99.90;;;;;;4921582;29;20288;-92
2022/02/02 21:31:50;;;;;;;24.90;15.20;;;8.30;99.90;;;;;;4927708;29;20211;-91
2022/02/02 21:35:25;;;;;;;31.27;17.47;;;8.10;99.90;;;;;;4926787;29;20436;-92
2022/02/02 21:38:58;;;;;;;29.55;17.27;;;8.40;99.90;;;;;;4918278;29;20428;-90
2022/02/02 21:42:25;;;;;;;36.03;20.37;;;8.50;99.90;;;;;;4929434;29;20198;-92
2022/02/02 21:45:48;;;;;;;29.90;19.73;;;8.60;99.90;;;;;;4918474;29;20750;-92
2022/02/02 21:49:23;;;;;;;28.17;18.70;;;8.20;99.90;;;;;;4915816;29;20423;-92
2022/02/02 21:52:49;;;;;;;36.58;20.15;;;8.30;99.90;;;;;;4914266;29;20814;-92
2022/02/02 21:56:17;;;;;;;30.38;17.65;;;8.40;99.90;;;;;;4916918;29;20701;-92
2022/02/02 21:59:46;;;;;;;33.17;18.77;;;8.20;99.90;;;;;;4909583;29;20227;-92
2022/02/02 22:03:08;;;;;;;35.87;19.83;;;8.30;99.90;;;;;;4916765;29;20621;-93
2022/02/02 22:06:18;;;;;;;33.60;20.42;;;8.40;99.90;;;;;;4909584;29;20444;-92
2022/02/02 22:08:51;;;;;;;36.38;20.70;;;8.60;99.90;;;;;;4895935;29;20195;-92
2022/02/02 22:11:17;;;;;;;32.67;18.45;;;8.60;99.90;;;;;;4894837;29;20650;-92
2022/02/02 22:14:02;;;;;;;38.73;21.03;;;8.50;99.90;;;;;;4897890;29;20192;-91
2022/02/02 22:16:28;;;;;;;38.10;20.77;;;8.40;99.90;;;;;;4886338;29;20202;-92
2022/02/02 22:19:00;;;;;;;42.87;22.50;;;8.40;99.90;;;;;;4898295;29;20191;-92
2022/02/02 22:21:26;;;;;;;40.30;22.20;;;8.40;99.90;;;;;;4898182;29;20440;-94
2022/02/02 22:23:52;;;;;;;43.80;22.83;;;8.40;99.90;;;;;;4904256;29;20204;-93
2022/02/02 22:26:19;;;;;;;43.13;21.15;;;8.40;99.90;;;;;;4898703;29;21041;-92
2022/02/02 22:28:48;;;;;;;36.15;21.67;;;8.50;99.90;;;;;;4898442;29;20199;-92
2022/02/02 22:31:18;;;;;;;41.72;22.88;;;8.40;99.90;;;;;;4902417;29;20183;-92
2022/02/02 22:33:43;;;;;;;45.15;21.27;;;8.60;99.90;;;;;;4933977;29;20196;-92
2022/02/02 22:36:10;;;;;;;42.27;21.93;;;8.50;99.90;;;;;;4917352;29;20286;-91
2022/02/02 22:38:38;;;;;;;34.43;20.70;;;8.70;99.90;;;;;;4944678;29;20188;-91
2022/02/02 22:41:04;;;;;;;33.38;20.27;;;8.60;99.90;;;;;;4897817;29;20477;-91
2022/02/02 22:43:32;;;;;;;37.40;21.80;;;8.70;99.90;;;;;;4897282;29;20584;-92
2022/02/02 22:45:59;;;;;;;38.05;22.35;;;8.70;99.90;;;;;;4909805;29;20190;-92
2022/02/02 22:48:31;;;;;;;41.78;20.95;;;8.70;99.90;;;;;;4922288;29;20231;-93
2022/02/02 22:51:00;;;;;;;40.08;21.33;;;8.60;99.90;;;;;;4898866;29;20211;-91
2022/02/02 22:53:26;;;;;;;38.88;22.23;;;8.60;99.90;;;;;;4897348;29;20199;-92
2022/02/02 22:55:54;;;;;;;35.10;19.55;;;8.70;99.90;;;;;;4908010;29;20224;-93
2022/02/02 22:58:20;;;;;;;43.78;22.90;;;8.70;99.90;;;;;;4908399;29;20437;-92
2022/02/02 23:00:48;;;;;;;38.27;19.30;;;8.60;99.90;;;;;;4902916;29;20188;-93
2022/02/02 23:03:17;;;;;;;34.40;19.00;;;8.60;99.90;;;;;;4896936;29;20427;-92
2022/02/02 23:05:51;;;;;;;36.28;20.75;;;8.70;99.90;;;;;;4914287;29;20569;-92
2022/02/02 23:08:19;;;;;;;41.42;22.63;;;8.80;99.90;;;;;;4888407;29;20239;-91
2022/02/02 23:10:45;;;;;;;42.65;21.83;;;8.60;99.90;;;;;;4898604;29;20243;-92
2022/02/02 23:13:13;;;;;;;45.70;23.00;;;9.00;99.90;;;;;;4880526;29;20180;-92
2022/02/02 23:18:37;;;;;;;36.35;19.83;;;8.90;99.90;;;;;;4901988;29;20283;-92
2022/02/02 23:21:09;;;;;;;35.40;19.13;;;8.70;99.90;;;;;;4899483;29;20567;-91
2022/02/02 23:23:44;;;;;;;37.25;20.13;;;8.80;99.90;;;;;;4895166;29;20448;-91
2022/02/02 23:26:11;;;;;;;38.45;19.58;;;8.90;99.90;;;;;;4907858;29;20200;-92
2022/02/02 23:28:42;;;;;;;31.57;18.37;;;8.60;99.90;;;;;;4902900;29;20229;-92
2022/02/02 23:31:11;;;;;;;32.60;18.63;;;8.70;99.90;;;;;;4908376;29;20558;-92
2022/02/02 23:33:40;;;;;;;43.38;21.95;;;8.90;99.90;;;;;;4916117;29;20448;-93
2022/02/02 23:36:08;;;;;;;46.27;23.23;;;8.80;99.90;;;;;;4895620;29;20242;-93
2022/02/02 23:38:33;;;;;;;42.95;20.83;;;9.00;99.90;;;;;;4914262;29;20768;-92
2022/02/02 23:43:25;;;;;;;42.80;21.73;;;8.80;99.90;;;;;;4913305;29;20680;-92
2022/02/02 23:45:58;;;;;;;44.95;20.77;;;8.80;99.90;;;;;;4897404;29;20176;-92
2022/02/02 23:48:27;;;;;;;42.87;22.00;;;8.80;99.90;;;;;;4889091;29;20214;-92
2022/02/02 23:51:03;;;;;;;54.33;24.23;;;9.60;99.90;;;;;;4896538;29;20480;-88
2022/02/02 23:53:31;;;;;;;46.42;21.42;;;9.20;99.90;;;;;;4897881;29;20534;-93
2022/02/02 23:56:12;;;;;;;48.13;24.88;;;8.80;99.90;;;;;;4886479;29;20216;-92
2022/02/02 23:58:43;;;;;;;51.10;23.43;;;8.70;99.90;;;;;;4915575;29;20309;-92
